sensor_id;sensor_type;location;lat;lon;timestamp;pressure;altitude;pressure_sealevel;temperature;humidity
72110;BME280;59983;52.010;5.420;2024-02-14T00:02:03;101218.47;;;18.80;64.47
72110;BME280;59983;52.010;5.420;2024-02-14T00:04:32;101218.47;;;18.80;64.43
72110;BME280;59983;52.010;5.420;2024-02-14T00:06:59;101212.19;;;18.80;64.41
72110;BME280;59983;52.010;5.420;2024-02-14T00:09:25;101211.41;;;18.79;64.42
72110;BME280;59983;52.010;5.420;2024-02-14T00:11:52;101207.06;;;18.78;64.51
72110;BME280;59983;52.010;5.420;2024-02-14T00:14:18;101207.06;;;18.78;64.45
72110;BME280;59983;52.010;5.420;2024-02-14T00:16:46;101203.16;;;18.76;64.55
72110;BME280;59983;52.010;5.420;2024-02-14T00:19:13;101194.91;;;18.76;64.39
72110;BME280;59983;52.010;5.420;2024-02-14T00:21:40;101199.22;;;18.77;64.48
72110;BME280;59983;52.010;5.420;2024-02-14T00:24:07;101192.94;;;18.76;64.46
72110;BME280;59983;52.010;5.420;2024-02-14T00:26:34;101193.34;;;18.75;64.41
72110;BME280;59983;52.010;5.420;2024-02-14T00:29:01;101201.59;;;18.75;64.51
72110;BME280;59983;52.010;5.420;2024-02-14T00:31:27;101193.75;;;18.73;64.35
72110;BME280;59983;52.010;5.420;2024-02-14T00:33:55;101188.63;;;18.72;64.45
72110;BME280;59983;52.010;5.420;2024-02-14T00:36:22;101200.38;;;18.72;64.43
72110;BME280;59983;52.010;5.420;2024-02-14T00:38:49;101189.78;;;18.71;64.32
72110;BME280;59983;52.010;5.420;2024-02-14T00:41:16;101193.31;;;18.71;64.43
72110;BME280;59983;52.010;5.420;2024-02-14T00:43:42;101186.25;;;18.70;64.42
72110;BME280;59983;52.010;5.420;2024-02-14T00:46:09;101186.25;;;18.70;64.42
72110;BME280;59983;52.010;5.420;2024-02-14T00:48:35;101179.19;;;18.69;64.42
72110;BME280;59983;52.010;5.420;2024-02-14T00:51:02;101175.66;;;18.68;64.32
72110;BME280;59983;52.010;5.420;2024-02-14T00:53:29;101178.81;;;18.67;64.52
72110;BME280;59983;52.010;5.420;2024-02-14T00:55:56;101179.22;;;18.65;64.38
72110;BME280;59983;52.010;5.420;2024-02-14T00:58:22;101169.00;;;18.66;64.49
72110;BME280;59983;52.010;5.420;2024-02-14T01:00:49;101183.09;;;18.64;64.56
72110;BME280;59983;52.010;5.420;2024-02-14T01:03:15;101168.56;;;18.64;64.51
72110;BME280;59983;52.010;5.420;2024-02-14T01:05:43;101165.03;;;18.63;64.40
72110;BME280;59983;52.010;5.420;2024-02-14T01:08:10;101168.16;;;18.62;64.43
72110;BME280;59983;52.010;5.420;2024-02-14T01:10:36;101164.25;;;18.63;64.49
72110;BME280;59983;52.010;5.420;2024-02-14T01:13:03;101170.13;;;18.61;64.48
72110;BME280;59983;52.010;5.420;2024-02-14T01:15:29;101171.31;;;18.60;64.46
72110;BME280;59983;52.010;5.420;2024-02-14T01:17:56;101172.50;;;18.59;64.46
72110;BME280;59983;52.010;5.420;2024-02-14T01:20:23;101175.25;;;18.59;64.35
72110;BME280;59983;52.010;5.420;2024-02-14T01:22:50;101174.47;;;18.59;64.42
72110;BME280;59983;52.010;5.420;2024-02-14T01:25:16;101170.13;;;18.58;64.43
72110;BME280;59983;52.010;5.420;2024-02-14T01:27:43;101176.81;;;18.57;64.51
72110;BME280;59983;52.010;5.420;2024-02-14T01:30:10;101173.28;;;18.56;64.39
72110;BME280;59983;52.010;5.420;2024-02-14T01:32:37;101173.28;;;18.56;64.44
72110;BME280;59983;52.010;5.420;2024-02-14T01:35:05;101173.28;;;18.56;64.50
72110;BME280;59983;52.010;5.420;2024-02-14T01:37:32;101174.84;;;18.54;64.43
72110;BME280;59983;52.010;5.420;2024-02-14T01:39:59;101179.53;;;18.53;64.44
72110;BME280;59983;52.010;5.420;2024-02-14T01:42:25;101165.03;;;18.53;64.37
72110;BME280;59983;52.010;5.420;2024-02-14T01:44:54;101173.66;;;18.51;64.38
72110;BME280;59983;52.010;5.420;2024-02-14T01:47:23;101163.47;;;18.52;64.41
72110;BME280;59983;52.010;5.420;2024-02-14T01:49:50;101173.25;;;18.53;64.52
72110;BME280;59983;52.010;5.420;2024-02-14T01:52:17;101168.16;;;18.51;64.51
72110;BME280;59983;52.010;5.420;2024-02-14T01:54:44;101168.16;;;18.51;64.42
72110;BME280;59983;52.010;5.420;2024-02-14T01:57:10;101176.41;;;18.51;64.41
72110;BME280;59983;52.010;5.420;2024-02-14T01:59:37;101171.31;;;18.50;64.51
72110;BME280;59983;52.010;5.420;2024-02-14T02:02:04;101176.03;;;18.49;64.46
72110;BME280;59983;52.010;5.420;2024-02-14T02:04:33;101174.06;;;18.50;64.39
72110;BME280;59983;52.010;5.420;2024-02-14T02:07:01;101182.69;;;18.48;64.42
72110;BME280;59983;52.010;5.420;2024-02-14T02:09:27;101172.88;;;18.47;64.37
72110;BME280;59983;52.010;5.420;2024-02-14T02:11:54;101185.84;;;18.47;64.55
72110;BME280;59983;52.010;5.420;2024-02-14T02:14:22;101171.69;;;18.45;64.43
72110;BME280;59983;52.010;5.420;2024-02-14T02:16:49;101173.25;;;18.46;64.58
72110;BME280;59983;52.010;5.420;2024-02-14T02:19:15;101181.09;;;18.44;64.54
72110;BME280;59983;52.010;5.420;2024-02-14T02:21:42;101172.06;;;18.43;64.40
72110;BME280;59983;52.010;5.420;2024-02-14T02:24:15;101170.13;;;18.44;64.69
72110;BME280;59983;52.010;5.420;2024-02-14T02:26:42;101177.56;;;18.43;64.52
72110;BME280;59983;52.010;5.420;2024-02-14T02:29:10;101174.81;;;18.43;64.58
72110;BME280;59983;52.010;5.420;2024-02-14T02:31:37;101179.16;;;18.40;64.43
72110;BME280;59983;52.010;5.420;2024-02-14T02:34:04;101177.19;;;18.41;64.64
72110;BME280;59983;52.010;5.420;2024-02-14T02:36:31;101178.34;;;18.40;64.50
72110;BME280;59983;52.010;5.420;2024-02-14T02:38:58;101183.06;;;18.39;64.60
72110;BME280;59983;52.010;5.420;2024-02-14T02:41:27;101181.50;;;18.38;64.62
72110;BME280;59983;52.010;5.420;2024-02-14T02:43:53;101185.81;;;18.39;64.58
72110;BME280;59983;52.010;5.420;2024-02-14T02:46:20;101180.72;;;18.38;64.53
72110;BME280;59983;52.010;5.420;2024-02-14T02:48:48;101190.53;;;18.39;64.69
72110;BME280;59983;52.010;5.420;2024-02-14T02:51:16;101186.22;;;18.38;64.62
72110;BME280;59983;52.010;5.420;2024-02-14T02:53:44;101181.09;;;18.36;64.66
72110;BME280;59983;52.010;5.420;2024-02-14T02:56:10;101197.56;;;18.36;64.63
72110;BME280;59983;52.010;5.420;2024-02-14T02:58:38;101191.28;;;18.36;64.58
72110;BME280;59983;52.010;5.420;2024-02-14T03:01:08;101185.41;;;18.34;64.72
72110;BME280;59983;52.010;5.420;2024-02-14T03:03:41;101188.53;;;18.36;64.75
72110;BME280;59983;52.010;5.420;2024-02-14T03:06:09;101187.38;;;18.33;64.68
72110;BME280;59983;52.010;5.420;2024-02-14T03:08:35;101183.84;;;18.33;64.82
72110;BME280;59983;52.010;5.420;2024-02-14T03:11:05;101190.50;;;18.32;64.81
72110;BME280;59983;52.010;5.420;2024-02-14T03:13:32;101186.59;;;18.33;64.73
72110;BME280;59983;52.010;5.420;2024-02-14T03:15:59;101191.28;;;18.32;64.72
72110;BME280;59983;52.010;5.420;2024-02-14T03:18:26;101185.41;;;18.30;64.80
72110;BME280;59983;52.010;5.420;2024-02-14T03:20:53;101182.66;;;18.30;64.86
72110;BME280;59983;52.010;5.420;2024-02-14T03:23:20;101185.41;;;18.30;64.85
72110;BME280;59983;52.010;5.420;2024-02-14T03:25:47;101192.88;;;18.30;64.76
72110;BME280;59983;52.010;5.420;2024-02-14T03:28:14;101190.47;;;18.28;64.68
72110;BME280;59983;52.010;5.420;2024-02-14T03:30:41;101188.53;;;18.29;64.81
72110;BME280;59983;52.010;5.420;2024-02-14T03:33:08;101198.72;;;18.28;64.90
72110;BME280;59983;52.010;5.420;2024-02-14T03:35:36;101189.69;;;18.28;64.88
72110;BME280;59983;52.010;5.420;2024-02-14T03:38:03;101198.31;;;18.26;64.84
72110;BME280;59983;52.010;5.420;2024-02-14T03:40:30;101199.50;;;18.25;64.96
72110;BME280;59983;52.010;5.420;2024-02-14T03:42:56;101209.72;;;18.25;64.90
72110;BME280;59983;52.010;5.420;2024-02-14T03:45:23;101200.28;;;18.26;64.93
72110;BME280;59983;52.010;5.420;2024-02-14T03:47:50;101209.72;;;18.25;64.96
72110;BME280;59983;52.010;5.420;2024-02-14T03:50:17;101208.91;;;18.24;64.97
72110;BME280;59983;52.010;5.420;2024-02-14T03:52:43;101200.69;;;18.24;65.06
72110;BME280;59983;52.010;5.420;2024-02-14T03:55:10;101205.38;;;18.24;64.97
72110;BME280;59983;52.010;5.420;2024-02-14T03:57:40;101209.31;;;18.23;65.00
72110;BME280;59983;52.010;5.420;2024-02-14T04:00:07;101212.06;;;18.23;65.07
72110;BME280;59983;52.010;5.420;2024-02-14T04:02:38;101214.03;;;18.22;64.96
72110;BME280;59983;52.010;5.420;2024-02-14T04:05:06;101222.25;;;18.22;65.01
72110;BME280;59983;52.010;5.420;2024-02-14T04:07:33;101217.94;;;18.21;64.99
72110;BME280;59983;52.010;5.420;2024-02-14T04:10:00;101226.53;;;18.20;64.95
72110;BME280;59983;52.010;5.420;2024-02-14T04:12:27;101222.22;;;18.19;65.06
72110;BME280;59983;52.010;5.420;2024-02-14T04:14:53;101224.97;;;18.19;65.10
72110;BME280;59983;52.010;5.420;2024-02-14T04:17:20;101233.22;;;18.19;65.07
72110;BME280;59983;52.010;5.420;2024-02-14T04:19:47;101234.38;;;18.18;64.98
72110;BME280;59983;52.010;5.420;2024-02-14T04:22:13;101231.66;;;18.18;64.98
72110;BME280;59983;52.010;5.420;2024-02-14T04:24:40;101236.75;;;18.19;65.06
72110;BME280;59983;52.010;5.420;2024-02-14T04:27:06;101243.41;;;18.18;65.02
72110;BME280;59983;52.010;5.420;2024-02-14T04:29:33;101241.84;;;18.17;65.05
72110;BME280;59983;52.010;5.420;2024-02-14T04:32:01;101235.56;;;18.17;65.06
72110;BME280;59983;52.010;5.420;2024-02-14T04:34:27;101236.34;;;18.17;65.14
72110;BME280;59983;52.010;5.420;2024-02-14T04:36:54;101248.50;;;18.16;65.06
72110;BME280;59983;52.010;5.420;2024-02-14T04:39:21;101243.03;;;18.16;65.15
72110;BME280;59983;52.010;5.420;2024-02-14T04:41:47;101246.16;;;18.15;64.94
72110;BME280;59983;52.010;5.420;2024-02-14T04:44:27;101241.84;;;18.14;65.07
72110;BME280;59983;52.010;5.420;2024-02-14T04:46:54;101241.06;;;18.13;65.22
72110;BME280;59983;52.010;5.420;2024-02-14T04:49:22;101253.63;;;18.14;65.20
72110;BME280;59983;52.010;5.420;2024-02-14T04:51:49;101253.22;;;18.12;65.26
72110;BME280;59983;52.010;5.420;2024-02-14T04:54:15;101248.91;;;18.11;65.16
72110;BME280;59983;52.010;5.420;2024-02-14T04:56:43;101251.66;;;18.11;65.30
72110;BME280;59983;52.010;5.420;2024-02-14T04:59:09;101254.41;;;18.11;65.27
72110;BME280;59983;52.010;5.420;2024-02-14T05:01:36;101256.31;;;18.10;65.38
72110;BME280;59983;52.010;5.420;2024-02-14T05:04:03;101258.69;;;18.08;65.26
72110;BME280;59983;52.010;5.420;2024-02-14T05:06:31;101260.63;;;18.08;65.38
72110;BME280;59983;52.010;5.420;2024-02-14T05:08:57;101261.81;;;18.10;65.35
72110;BME280;59983;52.010;5.420;2024-02-14T05:11:24;101262.22;;;18.09;65.38
72110;BME280;59983;52.010;5.420;2024-02-14T05:13:50;101274.38;;;18.08;65.33
72110;BME280;59983;52.010;5.420;2024-02-14T05:16:20;101266.53;;;18.06;65.33
72110;BME280;59983;52.010;5.420;2024-02-14T05:18:47;101270.84;;;18.07;65.45
72110;BME280;59983;52.010;5.420;2024-02-14T05:21:15;101273.19;;;18.05;65.42
72110;BME280;59983;52.010;5.420;2024-02-14T05:23:43;101276.72;;;18.06;65.51
72110;BME280;59983;52.010;5.420;2024-02-14T05:26:12;101273.97;;;18.06;65.48
72110;BME280;59983;52.010;5.420;2024-02-14T05:28:38;101275.16;;;18.05;65.56
72110;BME280;59983;52.010;5.420;2024-02-14T05:31:05;101283.38;;;18.05;65.34
72110;BME280;59983;52.010;5.420;2024-02-14T05:33:32;101276.31;;;18.04;65.41
72110;BME280;59983;52.010;5.420;2024-02-14T05:35:58;101284.56;;;18.04;65.45
72110;BME280;59983;52.010;5.420;2024-02-14T05:38:25;101281.81;;;18.04;65.62
72110;BME280;59983;52.010;5.420;2024-02-14T05:40:52;101287.31;;;18.04;65.54
72110;BME280;59983;52.010;5.420;2024-02-14T05:43:18;101278.63;;;18.02;65.57
72110;BME280;59983;52.010;5.420;2024-02-14T05:45:45;101281.78;;;18.00;65.56
72110;BME280;59983;52.010;5.420;2024-02-14T05:48:12;101291.59;;;18.01;65.58
72110;BME280;59983;52.010;5.420;2024-02-14T05:50:39;101290.00;;;18.00;65.58
72110;BME280;59983;52.010;5.420;2024-02-14T05:53:05;101289.22;;;18.00;65.61
72110;BME280;59983;52.010;5.420;2024-02-14T05:55:32;101296.66;;;17.99;65.69
72110;BME280;59983;52.010;5.420;2024-02-14T05:57:59;101288.44;;;17.99;65.67
72110;BME280;59983;52.010;5.420;2024-02-14T06:00:26;101293.16;;;17.99;65.78
72110;BME280;59983;52.010;5.420;2024-02-14T06:02:55;101297.84;;;17.98;65.75
72110;BME280;59983;52.010;5.420;2024-02-14T06:05:22;101296.66;;;17.99;65.75
72110;BME280;59983;52.010;5.420;2024-02-14T06:07:49;101297.06;;;17.98;65.72
72110;BME280;59983;52.010;5.420;2024-02-14T06:10:17;101296.28;;;17.97;65.70
72110;BME280;59983;52.010;5.420;2024-02-14T06:12:44;101293.91;;;17.96;65.65
72110;BME280;59983;52.010;5.420;2024-02-14T06:15:11;101300.97;;;17.97;65.72
72110;BME280;59983;52.010;5.420;2024-02-14T06:17:37;101306.84;;;17.95;65.74
72110;BME280;59983;52.010;5.420;2024-02-14T06:20:05;101310.38;;;17.96;65.74
72110;BME280;59983;52.010;5.420;2024-02-14T06:22:34;101307.25;;;17.94;65.89
72110;BME280;59983;52.010;5.420;2024-02-14T06:25:13;101317.06;;;17.95;65.80
72110;BME280;59983;52.010;5.420;2024-02-14T06:27:39;101333.53;;;17.95;65.86
72110;BME280;59983;52.010;5.420;2024-02-14T06:30:06;101313.88;;;17.93;65.89
72110;BME280;59983;52.010;5.420;2024-02-14T06:32:34;101326.03;;;17.92;65.88
72110;BME280;59983;52.010;5.420;2024-02-14T06:35:02;101320.53;;;17.92;65.86
72110;BME280;59983;52.010;5.420;2024-02-14T06:37:29;101330.34;;;17.93;65.84
72110;BME280;59983;52.010;5.420;2024-02-14T06:40:01;101343.28;;;17.92;65.92
72110;BME280;59983;52.010;5.420;2024-02-14T06:42:28;101336.22;;;17.91;65.90
72110;BME280;59983;52.010;5.420;2024-02-14T06:44:54;101343.28;;;17.92;66.01
72110;BME280;59983;52.010;5.420;2024-02-14T06:47:21;101345.25;;;17.92;66.02
72110;BME280;59983;52.010;5.420;2024-02-14T06:49:48;101358.19;;;17.91;66.05
72110;BME280;59983;52.010;5.420;2024-02-14T06:52:15;101344.84;;;17.90;66.03
72110;BME280;59983;52.010;5.420;2024-02-14T06:54:41;101340.53;;;17.89;66.02
72110;BME280;59983;52.010;5.420;2024-02-14T06:57:08;101342.50;;;17.88;66.00
72110;BME280;59983;52.010;5.420;2024-02-14T06:59:35;101342.09;;;17.90;66.07
72110;BME280;59983;52.010;5.420;2024-02-14T07:02:05;101346.41;;;17.87;66.07
72110;BME280;59983;52.010;5.420;2024-02-14T07:04:39;101347.59;;;17.86;66.13
72110;BME280;59983;52.010;5.420;2024-02-14T07:07:06;101351.13;;;17.87;66.27
72110;BME280;59983;52.010;5.420;2024-02-14T07:09:33;101351.91;;;17.87;66.21
72110;BME280;59983;52.010;5.420;2024-02-14T07:12:02;101355.81;;;17.86;66.11
72110;BME280;59983;52.010;5.420;2024-02-14T07:14:29;101359.75;;;17.85;66.25
72110;BME280;59983;52.010;5.420;2024-02-14T07:16:55;101352.66;;;17.84;66.24
72110;BME280;59983;52.010;5.420;2024-02-14T07:19:22;101364.06;;;17.86;66.36
72110;BME280;59983;52.010;5.420;2024-02-14T07:21:48;101364.44;;;17.85;66.23
72110;BME280;59983;52.010;5.420;2024-02-14T07:24:15;101359.75;;;17.85;66.24
72110;BME280;59983;52.010;5.420;2024-02-14T07:26:42;101357.34;;;17.83;66.16
72110;BME280;59983;52.010;5.420;2024-02-14T07:29:10;101364.78;;;17.83;66.32
72110;BME280;59983;52.010;5.420;2024-02-14T07:31:37;101359.69;;;17.81;66.25
72110;BME280;59983;52.010;5.420;2024-02-14T07:34:04;101360.09;;;17.83;66.26
72110;BME280;59983;52.010;5.420;2024-02-14T07:36:35;101367.94;;;17.81;66.30
72110;BME280;59983;52.010;5.420;2024-02-14T07:39:02;101367.53;;;17.83;66.26
72110;BME280;59983;52.010;5.420;2024-02-14T07:41:28;101359.69;;;17.81;66.45
72110;BME280;59983;52.010;5.420;2024-02-14T07:43:55;101363.59;;;17.80;66.31
72110;BME280;59983;52.010;5.420;2024-02-14T07:46:23;101367.94;;;17.81;66.52
72110;BME280;59983;52.010;5.420;2024-02-14T07:48:52;101365.56;;;17.80;67.70
72110;BME280;59983;52.010;5.420;2024-02-14T07:51:19;101368.31;;;17.83;67.77
72110;BME280;59983;52.010;5.420;2024-02-14T07:53:47;101373.81;;;17.83;67.93
72110;BME280;59983;52.010;5.420;2024-02-14T07:56:15;101373.06;;;17.87;68.10
72110;BME280;59983;52.010;5.420;2024-02-14T07:58:44;101375.03;;;17.90;68.60
72110;BME280;59983;52.010;5.420;2024-02-14T08:01:11;101380.19;;;17.95;68.75
72110;BME280;59983;52.010;5.420;2024-02-14T08:03:37;101382.56;;;18.00;68.56
72110;BME280;59983;52.010;5.420;2024-02-14T08:06:06;101380.25;;;18.05;68.63
72110;BME280;59983;52.010;5.420;2024-02-14T08:08:33;101389.28;;;18.09;68.82
72110;BME280;59983;52.010;5.420;2024-02-14T08:11:00;101394.03;;;18.16;68.63
72110;BME280;59983;52.010;5.420;2024-02-14T08:13:26;101389.72;;;18.19;68.79
72110;BME280;59983;52.010;5.420;2024-02-14T08:15:53;101389.00;;;18.25;68.77
72110;BME280;59983;52.010;5.420;2024-02-14T08:18:20;101394.53;;;18.32;68.85
72110;BME280;59983;52.010;5.420;2024-02-14T08:20:47;101397.31;;;18.39;68.67
72110;BME280;59983;52.010;5.420;2024-02-14T08:23:13;101390.69;;;18.48;68.88
72110;BME280;59983;52.010;5.420;2024-02-14T08:25:40;101402.47;;;18.52;68.80
72110;BME280;59983;52.010;5.420;2024-02-14T08:28:07;101389.13;;;18.54;68.82
72110;BME280;59983;52.010;5.420;2024-02-14T08:30:34;101389.16;;;18.57;68.87
72110;BME280;59983;52.010;5.420;2024-02-14T08:33:00;101393.47;;;18.62;68.68
72110;BME280;59983;52.010;5.420;2024-02-14T08:35:27;101392.75;;;18.68;68.43
72110;BME280;59983;52.010;5.420;2024-02-14T08:37:54;101388.44;;;18.71;68.59
72110;BME280;59983;52.010;5.420;2024-02-14T08:40:24;101389.66;;;18.77;68.47
72110;BME280;59983;52.010;5.420;2024-02-14T08:42:51;101396.38;;;18.83;68.23
72110;BME280;59983;52.010;5.420;2024-02-14T08:45:17;101399.13;;;18.87;68.16
72110;BME280;59983;52.010;5.420;2024-02-14T08:47:44;101395.56;;;18.90;68.29
72110;BME280;59983;52.010;5.420;2024-02-14T08:50:11;101398.75;;;18.92;68.19
72110;BME280;59983;52.010;5.420;2024-02-14T08:52:37;101401.09;;;18.93;68.25
72110;BME280;59983;52.010;5.420;2024-02-14T08:55:04;101401.50;;;18.95;68.31
72110;BME280;59983;52.010;5.420;2024-02-14T08:57:34;101409.38;;;19.01;68.23
72110;BME280;59983;52.010;5.420;2024-02-14T09:00:01;101401.91;;;19.01;68.34
72110;BME280;59983;52.010;5.420;2024-02-14T09:02:29;101401.91;;;19.05;68.24
72110;BME280;59983;52.010;5.420;2024-02-14T09:04:55;101400.72;;;19.06;68.13
72110;BME280;59983;52.010;5.420;2024-02-14T09:07:22;101403.50;;;19.09;68.02
72110;BME280;59983;52.010;5.420;2024-02-14T09:09:49;101403.13;;;19.11;68.10
72110;BME280;59983;52.010;5.420;2024-02-14T09:12:15;101405.06;;;19.14;68.20
72110;BME280;59983;52.010;5.420;2024-02-14T09:14:42;101406.25;;;19.16;68.16
72110;BME280;59983;52.010;5.420;2024-02-14T09:17:09;101408.22;;;19.16;68.10
72110;BME280;59983;52.010;5.420;2024-02-14T09:19:36;101407.03;;;19.17;68.20
72110;BME280;59983;52.010;5.420;2024-02-14T09:22:03;101417.69;;;19.18;68.14
72110;BME280;59983;52.010;5.420;2024-02-14T09:24:32;101423.97;;;19.19;68.08
72110;BME280;59983;52.010;5.420;2024-02-14T09:26:59;101422.75;;;19.16;67.98
72110;BME280;59983;52.010;5.420;2024-02-14T09:29:26;101420.78;;;19.17;67.97
72110;BME280;59983;52.010;5.420;2024-02-14T09:31:52;101429.44;;;19.15;67.98
72110;BME280;59983;52.010;5.420;2024-02-14T09:34:19;101428.66;;;19.15;68.30
72110;BME280;59983;52.010;5.420;2024-02-14T09:36:50;101424.31;;;19.14;68.44
72110;BME280;59983;52.010;5.420;2024-02-14T09:39:16;101427.47;;;19.12;68.60
72110;BME280;59983;52.010;5.420;2024-02-14T09:41:46;101423.94;;;19.12;68.94
72110;BME280;59983;52.010;5.420;2024-02-14T09:44:17;101424.72;;;19.12;68.76
72110;BME280;59983;52.010;5.420;2024-02-14T09:46:45;101422.75;;;19.13;68.98
72110;BME280;59983;52.010;5.420;2024-02-14T09:49:12;101432.97;;;19.12;68.85
72110;BME280;59983;52.010;5.420;2024-02-14T09:51:42;101434.16;;;19.11;68.68
72110;BME280;59983;52.010;5.420;2024-02-14T09:54:11;101422.75;;;19.09;68.73
72110;BME280;59983;52.010;5.420;2024-02-14T09:56:38;101429.03;;;19.10;68.70
72110;BME280;59983;52.010;5.420;2024-02-14T09:59:05;101429.84;;;19.10;68.82
72110;BME280;59983;52.010;5.420;2024-02-14T10:01:35;101441.22;;;19.09;68.89
72110;BME280;59983;52.010;5.420;2024-02-14T10:04:02;101438.47;;;19.09;69.01
72110;BME280;59983;52.010;5.420;2024-02-14T10:06:29;101434.13;;;19.08;69.41
72110;BME280;59983;52.010;5.420;2024-02-14T10:08:57;101444.75;;;19.09;69.63
72110;BME280;59983;52.010;5.420;2024-02-14T10:11:31;101439.63;;;19.08;69.34
72110;BME280;59983;52.010;5.420;2024-02-14T10:13:59;101434.53;;;19.10;69.46
72110;BME280;59983;52.010;5.420;2024-02-14T10:16:30;101436.50;;;19.09;69.49
72110;BME280;59983;52.010;5.420;2024-02-14T10:18:57;101441.22;;;19.09;69.75
72110;BME280;59983;52.010;5.420;2024-02-14T10:21:24;101439.25;;;19.09;69.93
72110;BME280;59983;52.010;5.420;2024-02-14T10:23:52;101446.31;;;19.07;70.45
72110;BME280;59983;52.010;5.420;2024-02-14T10:26:20;101437.28;;;19.06;70.18
72110;BME280;59983;52.010;5.420;2024-02-14T10:28:46;101438.84;;;19.07;70.20
72110;BME280;59983;52.010;5.420;2024-02-14T10:31:16;101448.69;;;19.08;70.19
72110;BME280;59983;52.010;5.420;2024-02-14T10:33:43;101443.19;;;19.08;70.35
72110;BME280;59983;52.010;5.420;2024-02-14T10:36:12;101447.88;;;19.08;70.29
72110;BME280;59983;52.010;5.420;2024-02-14T10:38:39;101454.56;;;19.07;70.20
72110;BME280;59983;52.010;5.420;2024-02-14T10:41:06;101453.75;;;19.06;70.19
72110;BME280;59983;52.010;5.420;2024-02-14T10:43:36;101450.22;;;19.06;70.33
72110;BME280;59983;52.010;5.420;2024-02-14T10:46:08;101451.81;;;19.07;70.32
72110;BME280;59983;52.010;5.420;2024-02-14T10:48:38;101448.66;;;19.05;70.42
72110;BME280;59983;52.010;5.420;2024-02-14T10:51:08;101443.94;;;19.05;70.40
72110;BME280;59983;52.010;5.420;2024-02-14T10:53:35;101445.91;;;19.05;70.58
72110;BME280;59983;52.010;5.420;2024-02-14T10:56:05;101447.09;;;19.04;70.36
72110;BME280;59983;52.010;5.420;2024-02-14T10:58:33;101454.16;;;19.05;70.68
72110;BME280;59983;52.010;5.420;2024-02-14T11:01:01;101452.97;;;19.06;70.82
72110;BME280;59983;52.010;5.420;2024-02-14T11:03:29;101453.75;;;19.06;71.14
72110;BME280;59983;52.010;5.420;2024-02-14T11:06:01;101447.47;;;19.06;71.52
72110;BME280;59983;52.010;5.420;2024-02-14T11:08:30;101449.84;;;19.07;71.80
72110;BME280;59983;52.010;5.420;2024-02-14T11:11:01;101445.50;;;19.06;72.42
72110;BME280;59983;52.010;5.420;2024-02-14T11:13:28;101440.81;;;19.07;72.36
72110;BME280;59983;52.010;5.420;2024-02-14T11:16:00;101441.22;;;19.09;72.33
72110;BME280;59983;52.010;5.420;2024-02-14T11:18:28;101442.78;;;19.10;72.61
72110;BME280;59983;52.010;5.420;2024-02-14T11:21:03;101431.00;;;19.09;72.65
72110;BME280;59983;52.010;5.420;2024-02-14T11:23:31;101445.94;;;19.12;72.60
72110;BME280;59983;52.010;5.420;2024-02-14T11:26:02;101436.91;;;19.11;72.84
72110;BME280;59983;52.010;5.420;2024-02-14T11:28:29;101429.44;;;19.12;72.58
72110;BME280;59983;52.010;5.420;2024-02-14T11:31:02;101433.75;;;19.13;72.86
72110;BME280;59983;52.010;5.420;2024-02-14T11:33:31;101430.22;;;19.12;72.79
72110;BME280;59983;52.010;5.420;2024-02-14T11:35:58;101426.69;;;19.12;72.99
72110;BME280;59983;52.010;5.420;2024-02-14T11:38:33;101428.25;;;19.13;73.08
72110;BME280;59983;52.010;5.420;2024-02-14T11:41:00;101431.00;;;19.13;73.09
72110;BME280;59983;52.010;5.420;2024-02-14T11:43:26;101425.50;;;19.13;73.06
72110;BME280;59983;52.010;5.420;2024-02-14T11:45:53;101431.41;;;19.15;73.18
72110;BME280;59983;52.010;5.420;2024-02-14T11:48:21;101423.16;;;19.15;73.11
72110;BME280;59983;52.010;5.420;2024-02-14T11:50:53;101423.16;;;19.15;73.19
72110;BME280;59983;52.010;5.420;2024-02-14T11:53:20;101424.31;;;19.14;73.46
72110;BME280;59983;52.010;5.420;2024-02-14T11:55:47;101426.69;;;19.15;73.11
72110;BME280;59983;52.010;5.420;2024-02-14T11:58:15;101427.06;;;19.14;72.90
72110;BME280;59983;52.010;5.420;2024-02-14T12:00:43;101432.19;;;19.12;72.96
72110;BME280;59983;52.010;5.420;2024-02-14T12:03:18;101430.63;;;19.11;73.04
72110;BME280;59983;52.010;5.420;2024-02-14T12:05:46;101419.63;;;19.11;72.96
72110;BME280;59983;52.010;5.420;2024-02-14T12:08:14;101418.84;;;19.10;72.84
72110;BME280;59983;52.010;5.420;2024-02-14T12:10:45;101424.34;;;19.10;72.69
72110;BME280;59983;52.010;5.420;2024-02-14T12:13:21;101421.19;;;19.08;72.65
72110;BME280;59983;52.010;5.420;2024-02-14T12:15:50;101420.38;;;19.08;72.69
72110;BME280;59983;52.010;5.420;2024-02-14T12:18:19;101410.56;;;19.07;72.53
72110;BME280;59983;52.010;5.420;2024-02-14T12:20:46;101421.16;;;19.05;72.62
72110;BME280;59983;52.010;5.420;2024-02-14T12:23:20;101420.38;;;19.04;72.56
72110;BME280;59983;52.010;5.420;2024-02-14T12:25:48;101409.78;;;19.03;72.74
72110;BME280;59983;52.010;5.420;2024-02-14T12:28:17;101416.44;;;19.02;72.71
72110;BME280;59983;52.010;5.420;2024-02-14T12:30:49;101419.19;;;19.02;72.77
72110;BME280;59983;52.010;5.420;2024-02-14T12:33:18;101416.06;;;19.00;72.71
72110;BME280;59983;52.010;5.420;2024-02-14T12:35:46;101420.75;;;18.99;72.81
72110;BME280;59983;52.010;5.420;2024-02-14T12:38:17;101409.34;;;18.97;72.79
72110;BME280;59983;52.010;5.420;2024-02-14T12:40:44;101406.59;;;18.97;72.78
72110;BME280;59983;52.010;5.420;2024-02-14T12:43:12;101410.13;;;18.98;72.77
72110;BME280;59983;52.010;5.420;2024-02-14T12:45:41;101402.69;;;18.94;72.85
72110;BME280;59983;52.010;5.420;2024-02-14T12:48:09;101418.00;;;18.95;72.74
72110;BME280;59983;52.010;5.420;2024-02-14T12:50:36;101415.25;;;18.95;72.80
72110;BME280;59983;52.010;5.420;2024-02-14T12:53:07;101400.72;;;18.95;72.71